Tuesday, June 28, 2016, 8:02 PM EDT

KUNV, State College, University Park Airport

Location: State College, PA, United States Lat: 40.85
Local Time: 8:02 PM EDT ( 0:02 GMT) Lon: -77.85
Time Zone: US/Eastern Elev: 1240 ft

Show me the last for .
Show Decoded

2016-06-28 19:53 METAR KUNV 282353Z 31010KT 10SM SCT100 25/15 A2993 =
2016-06-28 18:53 METAR KUNV 282253Z 28009G15KT 10SM SCT060 BKN100 27/15 A2990 RMK LTG DSNT E =
2016-06-28 17:53 METAR KUNV 282153Z 27010KT 10SM SCT080 SCT100 28/14 A2989 =
2016-06-28 16:53 METAR KUNV 282053Z 30008G17KT 10SM SCT060 28/16 A2988 =
2016-06-28 15:53 METAR KUNV 281953Z 30012KT 10SM SKC 28/19 A2987 =
2016-06-28 14:53 METAR KUNV 281853Z 00000KT 10SM BKN055 BKN080 24/19 A2988 =
2016-06-28 14:20 METAR KUNV 281820Z 12005KT 10SM SCT022 BKN060 23/20 A2989 =
2016-06-28 14:00 METAR KUNV 281800Z 26005KT 10SM RA SCT023 BKN055 25/19 A2990 =
2016-06-28 13:53 METAR KUNV 281753Z 27010KT 7SM SCT028 BKN060 26/19 A2990 =
2016-06-28 12:53 METAR KUNV 281653Z 23010KT 10SM SCT034 BKN050 28/19 A2992 =
2016-06-28 11:53 METAR KUNV 281553Z 18005KT 10SM SCT065 26/19 A2994 =
2016-06-28 10:53 METAR KUNV 281453Z 28005KT 10SM BKN065 BKN075 OVC090 25/19 A2995 =
2016-06-28 09:53 METAR KUNV 281353Z 26004KT 10SM BKN090 24/18 A2996 =
2016-06-28 08:53 METAR KUNV 281253Z 00000KT 10SM BKN090 22/20 A2996 =
2016-06-28 07:53 METAR KUNV 281153Z 00000KT 6SM BR BKN090 20/19 A2996 =
2016-06-28 07:40 METAR KUNV 281140Z 00000KT 6SM BR SCT001 20/19 A2995 =
2016-06-28 07:38 METAR KUNV 281138Z 00000KT 3SM BR SCT001 19/19 A2995 RMK +FG OFF APPROACH END
                 RWY24 =
2016-06-28 07:28 METAR KUNV 281128Z 00000KT 1/4SM FG SKC 18/18 A2995
2016-06-28 07:12 METAR KUNV 281112Z 00000KT 1/8SM OVC001 18/18 A2995 =
2016-06-28 06:53 METAR KUNV 281053Z 00000KT 10SM SKC 19/18 A2995 =
2016-06-28 06:30 METAR KUNV 281030Z 00000KT 1/4SM FG SKC 18/18 A2995 =
2016-06-28 06:03 METAR KUNV 281003Z 00000KT 1/8SM FG OVC001 18/18 A2995 =
2016-06-28 06:02 METAR KUNV 281002Z 00000KT 0SM FG OVC001 18/18 A2995 =
2016-06-28 05:53 METAR KUNV 280953Z 00000KT 0SM OVC001 18/18 A2995 =
2016-06-28 05:35 METAR KUNV 280935Z AUTO 00000KT 1SM BR BKN001 BKN070 BKN100 18/18 A2995 RMK AO2
                 T01800177 =
2016-06-28 05:15 METAR KUNV 280915Z AUTO 00000KT 3SM BR SCT110 18/18 A2995 RMK AO2 T01830180 =
2016-06-28 04:55 METAR KUNV 280855Z AUTO 30004KT 1SM BR SCT090 BKN110 19/19 A2995 RMK AO2
                 T01900187 =
2016-06-28 04:35 METAR KUNV 280835Z AUTO 00000KT 5SM BR CLR 20/20 A2994 RMK AO2 T01990195 =
2016-06-28 04:15 METAR KUNV 280815Z AUTO 00000KT 7SM SCT070 SCT080 SCT090 20/19 A2994 RMK AO2
                 T01960189 =
2016-06-28 03:55 METAR KUNV 280755Z AUTO 22003KT 10SM SCT070 SCT080 20/19 A2994 RMK AO2 T02010189
                 =
2016-06-28 03:35 METAR KUNV 280735Z AUTO 24003KT 10SM SCT080 21/20 A2994 RMK AO2 T02060197 =
2016-06-28 03:15 METAR KUNV 280715Z AUTO 22003KT 7SM CLR 20/20 A2994 RMK AO2 T02040196 =
2016-06-28 02:55 METAR KUNV 280655Z AUTO 00000KT 7SM SCT070 SCT095 20/19 A2994 RMK AO2 T02010191
                 =
2016-06-28 02:35 METAR KUNV 280635Z AUTO 24005KT 10SM SCT070 SCT075 21/19 A2995 RMK AO2 T02080193
                 =
2016-06-28 02:15 METAR KUNV 280615Z AUTO 24005KT 10SM CLR 21/19 A2995 RMK AO2 T02100193 =
2016-06-28 01:55 METAR KUNV 280555Z AUTO 21003KT 10SM CLR 21/20 A2995 RMK AO2 T02100199 10265
                 20203 =
2016-06-28 01:35 METAR KUNV 280535Z AUTO 20003KT 10SM SCT060 SCT080 SCT110 21/20 A2996 RMK AO2
                 T02080195 =
2016-06-28 01:15 METAR KUNV 280515Z AUTO 00000KT 10SM SCT070 SCT110 21/19 A2996 RMK AO2 T02050194
                 =
2016-06-28 00:55 METAR KUNV 280455Z AUTO 23003KT 10SM SCT070 21/20 A2997 RMK AO2 LTG DSNT S
                 T02120201 =
2016-06-28 00:35 METAR KUNV 280435Z AUTO 25003KT 10SM CLR 23/21 A2997 RMK AO2 T02270207 =
2016-06-28 00:15 METAR KUNV 280415Z AUTO 22003KT 10SM CLR 23/21 A2997 RMK AO2 T02250206 =
2016-06-27 23:55 METAR KUNV 280355Z AUTO 23005KT 10SM BKN070 23/21 A2998 RMK AO2 T02310211
                 402960176 =
2016-06-27 23:35 METAR KUNV 280335Z AUTO 24004KT 10SM OVC070 24/21 A2998 RMK AO2 T02360212 =
2016-06-27 23:15 METAR KUNV 280315Z AUTO 21003KT 10SM BKN070 23/21 A2998 RMK AO2 T02290211 =
2016-06-27 22:55 METAR KUNV 280255Z AUTO 21003KT 10SM BKN070 23/21 A2998 RMK AO2 T02280211 =
2016-06-27 22:35 METAR KUNV 280235Z AUTO 00000KT 10SM SCT070 SCT080 23/21 A2998 RMK AO2 T02290211
                 =
2016-06-27 22:15 METAR KUNV 280215Z AUTO 00000KT 10SM CLR 24/21 A2998 RMK AO2 T02400213 =
2016-06-27 21:55 METAR KUNV 280155Z AUTO 21004KT 10SM CLR 24/21 A2997 RMK AO2 LTG DSNT E AND SE
                 T02360213 =
2016-06-27 20:53 METAR KUNV 280053Z 20005KT 10SM SCT070 25/21 A2997 =

Support USWX by starting your Amazon purchase here.